sensor_id;sensor_type;location;lat;lon;timestamp;temperature;humidity
18412;DHT22;27097;51.738;19.472;2022-07-19T00:00:23;23.60;50.70
18412;DHT22;27097;51.738;19.472;2022-07-19T00:02:50;23.60;50.20
18412;DHT22;27097;51.738;19.472;2022-07-19T00:05:18;23.60;50.40
18412;DHT22;27097;51.738;19.472;2022-07-19T00:07:45;23.70;50.20
18412;DHT22;27097;51.738;19.472;2022-07-19T00:10:15;23.70;50.00
18412;DHT22;27097;51.738;19.472;2022-07-19T00:12:43;23.70;50.20
18412;DHT22;27097;51.738;19.472;2022-07-19T00:15:11;23.60;50.30
18412;DHT22;27097;51.738;19.472;2022-07-19T00:17:43;23.60;50.50
18412;DHT22;27097;51.738;19.472;2022-07-19T00:20:11;23.50;50.40
18412;DHT22;27097;51.738;19.472;2022-07-19T00:22:39;23.50;50.40
18412;DHT22;27097;51.738;19.472;2022-07-19T00:25:07;23.50;50.10
18412;DHT22;27097;51.738;19.472;2022-07-19T00:27:34;23.40;50.10
18412;DHT22;27097;51.738;19.472;2022-07-19T00:30:02;23.40;50.00
18412;DHT22;27097;51.738;19.472;2022-07-19T00:32:30;23.50;50.30
18412;DHT22;27097;51.738;19.472;2022-07-19T00:34:58;23.50;50.40
18412;DHT22;27097;51.738;19.472;2022-07-19T00:37:25;23.50;50.40
18412;DHT22;27097;51.738;19.472;2022-07-19T00:39:53;23.50;50.60
18412;DHT22;27097;51.738;19.472;2022-07-19T00:42:20;23.50;50.10
18412;DHT22;27097;51.738;19.472;2022-07-19T00:44:47;23.50;50.30
18412;DHT22;27097;51.738;19.472;2022-07-19T00:47:14;23.50;50.10
18412;DHT22;27097;51.738;19.472;2022-07-19T00:49:41;23.50;50.10
18412;DHT22;27097;51.738;19.472;2022-07-19T00:52:09;23.50;50.70
18412;DHT22;27097;51.738;19.472;2022-07-19T00:54:40;23.50;50.90
18412;DHT22;27097;51.738;19.472;2022-07-19T00:57:08;23.50;51.40
18412;DHT22;27097;51.738;19.472;2022-07-19T00:59:36;23.50;50.90
18412;DHT22;27097;51.738;19.472;2022-07-19T01:02:03;23.40;51.80
18412;DHT22;27097;51.738;19.472;2022-07-19T01:04:31;23.40;51.40
18412;DHT22;27097;51.738;19.472;2022-07-19T01:06:59;23.40;51.30
18412;DHT22;27097;51.738;19.472;2022-07-19T01:09:28;23.30;51.70
18412;DHT22;27097;51.738;19.472;2022-07-19T01:11:56;23.30;51.50
18412;DHT22;27097;51.738;19.472;2022-07-19T01:14:23;23.30;51.40
18412;DHT22;27097;51.738;19.472;2022-07-19T01:16:50;23.30;51.10
18412;DHT22;27097;51.738;19.472;2022-07-19T01:19:17;23.30;51.20
18412;DHT22;27097;51.738;19.472;2022-07-19T01:21:46;23.30;51.30
18412;DHT22;27097;51.738;19.472;2022-07-19T01:24:13;23.30;51.30
18412;DHT22;27097;51.738;19.472;2022-07-19T01:26:43;23.30;51.50
18412;DHT22;27097;51.738;19.472;2022-07-19T01:29:14;23.30;51.40
18412;DHT22;27097;51.738;19.472;2022-07-19T01:31:41;23.30;51.40
18412;DHT22;27097;51.738;19.472;2022-07-19T01:34:08;23.40;51.30
18412;DHT22;27097;51.738;19.472;2022-07-19T01:36:35;23.40;51.30
18412;DHT22;27097;51.738;19.472;2022-07-19T01:39:04;23.40;51.00
18412;DHT22;27097;51.738;19.472;2022-07-19T01:41:31;23.40;50.90
18412;DHT22;27097;51.738;19.472;2022-07-19T01:43:58;23.40;51.10
18412;DHT22;27097;51.738;19.472;2022-07-19T01:46:25;23.30;50.80
18412;DHT22;27097;51.738;19.472;2022-07-19T01:48:52;23.30;50.90
18412;DHT22;27097;51.738;19.472;2022-07-19T01:51:19;23.40;51.40
18412;DHT22;27097;51.738;19.472;2022-07-19T01:53:46;23.30;50.70
18412;DHT22;27097;51.738;19.472;2022-07-19T01:56:15;23.30;50.70
18412;DHT22;27097;51.738;19.472;2022-07-19T01:58:42;23.30;50.70
18412;DHT22;27097;51.738;19.472;2022-07-19T02:01:09;23.30;50.70
18412;DHT22;27097;51.738;19.472;2022-07-19T02:03:36;23.30;50.90
18412;DHT22;27097;51.738;19.472;2022-07-19T02:06:03;23.30;51.00
18412;DHT22;27097;51.738;19.472;2022-07-19T02:08:30;23.30;50.70
18412;DHT22;27097;51.738;19.472;2022-07-19T02:10:57;23.30;50.70
18412;DHT22;27097;51.738;19.472;2022-07-19T02:13:26;23.30;50.80
18412;DHT22;27097;51.738;19.472;2022-07-19T02:15:53;23.20;51.00
18412;DHT22;27097;51.738;19.472;2022-07-19T02:18:20;23.20;50.70
18412;DHT22;27097;51.738;19.472;2022-07-19T02:20:47;23.20;51.10
18412;DHT22;27097;51.738;19.472;2022-07-19T02:23:14;23.20;51.30
18412;DHT22;27097;51.738;19.472;2022-07-19T02:25:41;23.20;50.80
18412;DHT22;27097;51.738;19.472;2022-07-19T02:28:08;23.20;51.10
18412;DHT22;27097;51.738;19.472;2022-07-19T02:30:36;23.20;51.30
18412;DHT22;27097;51.738;19.472;2022-07-19T02:33:03;23.20;51.30
18412;DHT22;27097;51.738;19.472;2022-07-19T02:35:30;23.20;51.30
18412;DHT22;27097;51.738;19.472;2022-07-19T02:37:57;23.20;51.30
18412;DHT22;27097;51.738;19.472;2022-07-19T02:40:24;23.20;51.60
18412;DHT22;27097;51.738;19.472;2022-07-19T02:42:52;23.30;51.40
18412;DHT22;27097;51.738;19.472;2022-07-19T02:45:19;23.20;51.50
18412;DHT22;27097;51.738;19.472;2022-07-19T02:47:48;23.30;51.40
18412;DHT22;27097;51.738;19.472;2022-07-19T02:50:15;23.30;51.10
18412;DHT22;27097;51.738;19.472;2022-07-19T02:52:42;23.30;51.40
18412;DHT22;27097;51.738;19.472;2022-07-19T02:55:09;23.30;51.00
18412;DHT22;27097;51.738;19.472;2022-07-19T02:57:36;23.30;51.20
18412;DHT22;27097;51.738;19.472;2022-07-19T03:00:04;23.30;50.80
18412;DHT22;27097;51.738;19.472;2022-07-19T03:02:32;23.30;50.50
18412;DHT22;27097;51.738;19.472;2022-07-19T03:05:00;23.30;50.50
18412;DHT22;27097;51.738;19.472;2022-07-19T03:07:27;23.30;50.40
18412;DHT22;27097;51.738;19.472;2022-07-19T03:09:55;23.30;50.60
18412;DHT22;27097;51.738;19.472;2022-07-19T03:12:22;23.20;50.60
18412;DHT22;27097;51.738;19.472;2022-07-19T03:14:49;23.20;50.70
18412;DHT22;27097;51.738;19.472;2022-07-19T03:17:16;23.20;50.90
18412;DHT22;27097;51.738;19.472;2022-07-19T03:19:43;23.30;50.80
18412;DHT22;27097;51.738;19.472;2022-07-19T03:22:13;23.20;51.00
18412;DHT22;27097;51.738;19.472;2022-07-19T03:24:40;23.30;50.70
18412;DHT22;27097;51.738;19.472;2022-07-19T03:27:07;23.30;50.80
18412;DHT22;27097;51.738;19.472;2022-07-19T03:29:34;23.30;50.50
18412;DHT22;27097;51.738;19.472;2022-07-19T03:32:01;23.20;50.70
18412;DHT22;27097;51.738;19.472;2022-07-19T03:34:28;23.20;50.90
18412;DHT22;27097;51.738;19.472;2022-07-19T03:36:55;23.20;50.90
18412;DHT22;27097;51.738;19.472;2022-07-19T03:39:24;23.30;50.70
18412;DHT22;27097;51.738;19.472;2022-07-19T03:41:51;23.30;50.50
18412;DHT22;27097;51.738;19.472;2022-07-19T03:44:18;23.30;50.20
18412;DHT22;27097;51.738;19.472;2022-07-19T03:46:45;23.30;51.10
18412;DHT22;27097;51.738;19.472;2022-07-19T03:49:12;23.40;51.60
18412;DHT22;27097;51.738;19.472;2022-07-19T03:51:39;23.40;51.90
18412;DHT22;27097;51.738;19.472;2022-07-19T03:54:06;23.50;52.50
18412;DHT22;27097;51.738;19.472;2022-07-19T03:56:34;23.60;52.70
18412;DHT22;27097;51.738;19.472;2022-07-19T03:59:01;23.70;51.70
18412;DHT22;27097;51.738;19.472;2022-07-19T04:01:30;23.80;51.70
18412;DHT22;27097;51.738;19.472;2022-07-19T04:03:57;23.80;51.60
18412;DHT22;27097;51.738;19.472;2022-07-19T04:06:24;23.90;51.50
18412;DHT22;27097;51.738;19.472;2022-07-19T04:08:51;23.90;51.30
18412;DHT22;27097;51.738;19.472;2022-07-19T04:11:18;24.00;51.70
18412;DHT22;27097;51.738;19.472;2022-07-19T04:13:46;24.00;51.40
18412;DHT22;27097;51.738;19.472;2022-07-19T04:16:13;24.10;51.50
18412;DHT22;27097;51.738;19.472;2022-07-19T04:18:40;24.10;51.40
18412;DHT22;27097;51.738;19.472;2022-07-19T04:21:08;24.10;51.20
18412;DHT22;27097;51.738;19.472;2022-07-19T04:23:35;24.20;51.30
18412;DHT22;27097;51.738;19.472;2022-07-19T04:26:02;24.20;51.20
18412;DHT22;27097;51.738;19.472;2022-07-19T04:28:29;24.20;51.10
18412;DHT22;27097;51.738;19.472;2022-07-19T04:30:58;24.20;51.00
18412;DHT22;27097;51.738;19.472;2022-07-19T04:33:25;24.30;51.40
18412;DHT22;27097;51.738;19.472;2022-07-19T04:35:52;24.30;51.40
18412;DHT22;27097;51.738;19.472;2022-07-19T04:38:19;24.30;51.00
18412;DHT22;27097;51.738;19.472;2022-07-19T04:40:47;24.30;51.30
18412;DHT22;27097;51.738;19.472;2022-07-19T04:43:14;24.30;51.20
18412;DHT22;27097;51.738;19.472;2022-07-19T04:45:42;24.30;51.20
18412;DHT22;27097;51.738;19.472;2022-07-19T04:48:11;24.40;51.00
18412;DHT22;27097;51.738;19.472;2022-07-19T04:50:39;24.40;51.00
18412;DHT22;27097;51.738;19.472;2022-07-19T04:53:06;24.40;50.60
18412;DHT22;27097;51.738;19.472;2022-07-19T04:55:33;24.40;50.80
18412;DHT22;27097;51.738;19.472;2022-07-19T04:58:00;24.40;50.80
18412;DHT22;27097;51.738;19.472;2022-07-19T05:00:28;24.40;50.60
18412;DHT22;27097;51.738;19.472;2022-07-19T05:02:55;24.40;50.40
18412;DHT22;27097;51.738;19.472;2022-07-19T05:05:23;24.50;50.50
18412;DHT22;27097;51.738;19.472;2022-07-19T05:07:51;24.50;50.70
18412;DHT22;27097;51.738;19.472;2022-07-19T05:10:18;24.50;50.90
18412;DHT22;27097;51.738;19.472;2022-07-19T05:12:45;24.50;50.70
18412;DHT22;27097;51.738;19.472;2022-07-19T05:15:12;24.50;50.50
18412;DHT22;27097;51.738;19.472;2022-07-19T05:17:39;24.50;50.40
18412;DHT22;27097;51.738;19.472;2022-07-19T05:20:07;24.50;50.70
18412;DHT22;27097;51.738;19.472;2022-07-19T05:22:35;24.50;50.60
18412;DHT22;27097;51.738;19.472;2022-07-19T05:25:02;24.50;50.60
18412;DHT22;27097;51.738;19.472;2022-07-19T05:27:29;24.50;50.80
18412;DHT22;27097;51.738;19.472;2022-07-19T05:29:57;24.50;50.40
18412;DHT22;27097;51.738;19.472;2022-07-19T05:32:24;24.50;50.80
18412;DHT22;27097;51.738;19.472;2022-07-19T05:34:51;24.50;50.50
18412;DHT22;27097;51.738;19.472;2022-07-19T05:37:18;24.50;50.90
18412;DHT22;27097;51.738;19.472;2022-07-19T05:39:46;24.60;51.10
18412;DHT22;27097;51.738;19.472;2022-07-19T05:42:13;24.60;51.20
18412;DHT22;27097;51.738;19.472;2022-07-19T05:44:40;24.60;51.10
18412;DHT22;27097;51.738;19.472;2022-07-19T05:47:07;24.60;51.20
18412;DHT22;27097;51.738;19.472;2022-07-19T05:49:34;24.60;50.80
18412;DHT22;27097;51.738;19.472;2022-07-19T05:52:02;24.60;51.20
18412;DHT22;27097;51.738;19.472;2022-07-19T05:54:30;24.60;50.90
18412;DHT22;27097;51.738;19.472;2022-07-19T05:56:58;24.60;51.00
18412;DHT22;27097;51.738;19.472;2022-07-19T05:59:25;24.60;51.00
18412;DHT22;27097;51.738;19.472;2022-07-19T06:01:52;24.60;51.10
18412;DHT22;27097;51.738;19.472;2022-07-19T06:04:20;24.60;51.10
18412;DHT22;27097;51.738;19.472;2022-07-19T06:06:47;24.60;50.90
18412;DHT22;27097;51.738;19.472;2022-07-19T06:09:14;24.60;50.90
18412;DHT22;27097;51.738;19.472;2022-07-19T06:11:41;24.60;51.20
18412;DHT22;27097;51.738;19.472;2022-07-19T06:14:10;24.60;51.30
18412;DHT22;27097;51.738;19.472;2022-07-19T06:16:40;24.60;51.00
18412;DHT22;27097;51.738;19.472;2022-07-19T06:19:08;24.70;51.00
18412;DHT22;27097;51.738;19.472;2022-07-19T06:21:35;24.70;51.20
18412;DHT22;27097;51.738;19.472;2022-07-19T06:24:03;24.60;51.20
18412;DHT22;27097;51.738;19.472;2022-07-19T06:26:40;24.70;51.30
18412;DHT22;27097;51.738;19.472;2022-07-19T06:29:16;24.70;51.10
18412;DHT22;27097;51.738;19.472;2022-07-19T06:31:43;24.70;51.20
18412;DHT22;27097;51.738;19.472;2022-07-19T06:34:10;24.70;51.50
18412;DHT22;27097;51.738;19.472;2022-07-19T06:36:37;24.70;52.10
18412;DHT22;27097;51.738;19.472;2022-07-19T06:39:05;24.70;51.80
18412;DHT22;27097;51.738;19.472;2022-07-19T06:41:32;24.70;51.30
18412;DHT22;27097;51.738;19.472;2022-07-19T06:43:59;24.70;51.60
18412;DHT22;27097;51.738;19.472;2022-07-19T06:46:27;24.80;51.90
18412;DHT22;27097;51.738;19.472;2022-07-19T06:48:54;24.80;51.80
18412;DHT22;27097;51.738;19.472;2022-07-19T06:51:21;24.80;51.70
18412;DHT22;27097;51.738;19.472;2022-07-19T06:53:48;24.80;52.20
18412;DHT22;27097;51.738;19.472;2022-07-19T06:56:18;24.80;52.40
18412;DHT22;27097;51.738;19.472;2022-07-19T06:58:45;24.80;52.20
18412;DHT22;27097;51.738;19.472;2022-07-19T07:01:13;24.80;52.30
18412;DHT22;27097;51.738;19.472;2022-07-19T07:03:42;24.80;52.40
18412;DHT22;27097;51.738;19.472;2022-07-19T07:06:09;24.80;52.30
18412;DHT22;27097;51.738;19.472;2022-07-19T07:08:36;24.80;52.80
18412;DHT22;27097;51.738;19.472;2022-07-19T07:11:03;24.80;53.50
18412;DHT22;27097;51.738;19.472;2022-07-19T07:13:30;24.80;53.40
18412;DHT22;27097;51.738;19.472;2022-07-19T07:15:58;24.90;53.50
18412;DHT22;27097;51.738;19.472;2022-07-19T07:18:25;24.90;53.70
18412;DHT22;27097;51.738;19.472;2022-07-19T07:20:53;24.90;53.70
18412;DHT22;27097;51.738;19.472;2022-07-19T07:23:20;24.90;54.00
18412;DHT22;27097;51.738;19.472;2022-07-19T07:25:49;24.90;54.00
18412;DHT22;27097;51.738;19.472;2022-07-19T07:28:17;24.90;54.20
18412;DHT22;27097;51.738;19.472;2022-07-19T07:30:44;24.90;53.80
18412;DHT22;27097;51.738;19.472;2022-07-19T07:33:11;25.00;54.40
18412;DHT22;27097;51.738;19.472;2022-07-19T07:35:38;25.00;54.80
18412;DHT22;27097;51.738;19.472;2022-07-19T07:38:07;25.00;55.10
18412;DHT22;27097;51.738;19.472;2022-07-19T07:40:34;25.00;54.60
18412;DHT22;27097;51.738;19.472;2022-07-19T07:43:01;25.00;54.80
18412;DHT22;27097;51.738;19.472;2022-07-19T07:45:28;25.10;54.90
18412;DHT22;27097;51.738;19.472;2022-07-19T07:47:57;25.10;54.80
18412;DHT22;27097;51.738;19.472;2022-07-19T07:50:28;25.10;54.80
18412;DHT22;27097;51.738;19.472;2022-07-19T07:52:55;25.20;54.70
18412;DHT22;27097;51.738;19.472;2022-07-19T07:55:23;25.20;54.80
18412;DHT22;27097;51.738;19.472;2022-07-19T07:57:51;25.20;54.60
18412;DHT22;27097;51.738;19.472;2022-07-19T08:00:18;25.20;54.70
18412;DHT22;27097;51.738;19.472;2022-07-19T08:02:48;25.20;54.20
18412;DHT22;27097;51.738;19.472;2022-07-19T08:05:15;25.20;54.50
18412;DHT22;27097;51.738;19.472;2022-07-19T08:07:47;25.20;54.30
18412;DHT22;27097;51.738;19.472;2022-07-19T08:10:14;25.20;54.70
18412;DHT22;27097;51.738;19.472;2022-07-19T08:12:46;25.20;55.00
18412;DHT22;27097;51.738;19.472;2022-07-19T08:15:13;25.30;54.80
18412;DHT22;27097;51.738;19.472;2022-07-19T08:17:40;25.30;54.70
18412;DHT22;27097;51.738;19.472;2022-07-19T08:20:09;25.30;54.40
18412;DHT22;27097;51.738;19.472;2022-07-19T08:22:36;25.30;54.10
18412;DHT22;27097;51.738;19.472;2022-07-19T08:25:06;25.30;53.80
18412;DHT22;27097;51.738;19.472;2022-07-19T08:27:34;25.30;53.70
18412;DHT22;27097;51.738;19.472;2022-07-19T08:30:06;25.40;53.40
18412;DHT22;27097;51.738;19.472;2022-07-19T08:32:36;25.40;53.40
18412;DHT22;27097;51.738;19.472;2022-07-19T08:35:04;25.50;52.70
18412;DHT22;27097;51.738;19.472;2022-07-19T08:37:35;25.50;53.50
18412;DHT22;27097;51.738;19.472;2022-07-19T08:40:04;25.60;53.40
18412;DHT22;27097;51.738;19.472;2022-07-19T08:42:34;25.50;54.20
18412;DHT22;27097;51.738;19.472;2022-07-19T08:45:05;25.60;54.00
18412;DHT22;27097;51.738;19.472;2022-07-19T08:47:34;25.60;56.60
18412;DHT22;27097;51.738;19.472;2022-07-19T08:50:02;25.50;57.20
18412;DHT22;27097;51.738;19.472;2022-07-19T08:52:32;25.60;57.80
18412;DHT22;27097;51.738;19.472;2022-07-19T08:54:59;25.50;58.20
18412;DHT22;27097;51.738;19.472;2022-07-19T08:57:26;25.50;59.00
18412;DHT22;27097;51.738;19.472;2022-07-19T09:00:13;25.50;59.10
18412;DHT22;27097;51.738;19.472;2022-07-19T09:02:51;25.50;59.30
18412;DHT22;27097;51.738;19.472;2022-07-19T09:05:18;25.50;59.80
18412;DHT22;27097;51.738;19.472;2022-07-19T09:08:00;25.50;60.70
18412;DHT22;27097;51.738;19.472;2022-07-19T09:10:28;25.50;61.00
18412;DHT22;27097;51.738;19.472;2022-07-19T09:13:00;25.50;60.70
18412;DHT22;27097;51.738;19.472;2022-07-19T09:15:44;25.50;61.40
18412;DHT22;27097;51.738;19.472;2022-07-19T09:18:14;25.50;62.30
18412;DHT22;27097;51.738;19.472;2022-07-19T09:20:43;25.50;62.80
18412;DHT22;27097;51.738;19.472;2022-07-19T09:23:11;25.50;63.10
18412;DHT22;27097;51.738;19.472;2022-07-19T09:25:40;25.50;64.00
18412;DHT22;27097;51.738;19.472;2022-07-19T09:28:08;25.50;64.30
18412;DHT22;27097;51.738;19.472;2022-07-19T09:30:38;25.50;64.50
18412;DHT22;27097;51.738;19.472;2022-07-19T09:33:09;25.50;64.60
18412;DHT22;27097;51.738;19.472;2022-07-19T09:35:38;25.60;64.60
18412;DHT22;27097;51.738;19.472;2022-07-19T09:38:34;25.60;64.50
18412;DHT22;27097;51.738;19.472;2022-07-19T09:41:12;25.60;64.00
18412;DHT22;27097;51.738;19.472;2022-07-19T09:43:49;25.60;64.20
18412;DHT22;27097;51.738;19.472;2022-07-19T09:46:33;25.60;64.20
18412;DHT22;27097;51.738;19.472;2022-07-19T09:49:08;25.60;63.70
18412;DHT22;27097;51.738;19.472;2022-07-19T09:51:37;25.60;64.00
18412;DHT22;27097;51.738;19.472;2022-07-19T09:54:11;25.60;62.80
18412;DHT22;27097;51.738;19.472;2022-07-19T09:56:51;25.60;62.40
18412;DHT22;27097;51.738;19.472;2022-07-19T09:59:43;25.60;64.00
18412;DHT22;27097;51.738;19.472;2022-07-19T10:02:12;25.70;61.60
18412;DHT22;27097;51.738;19.472;2022-07-19T10:04:42;25.70;60.90
18412;DHT22;27097;51.738;19.472;2022-07-19T10:07:11;25.70;60.90
18412;DHT22;27097;51.738;19.472;2022-07-19T10:10:02;25.70;61.00
18412;DHT22;27097;51.738;19.472;2022-07-19T10:12:32;25.70;61.50
18412;DHT22;27097;51.738;19.472;2022-07-19T10:15:00;25.70;60.70
18412;DHT22;27097;51.738;19.472;2022-07-19T10:17:32;25.70;60.60
18412;DHT22;27097;51.738;19.472;2022-07-19T10:20:03;25.70;60.70
18412;DHT22;27097;51.738;19.472;2022-07-19T10:22:33;25.70;60.90
18412;DHT22;27097;51.738;19.472;2022-07-19T10:25:10;25.70;60.50
18412;DHT22;27097;51.738;19.472;2022-07-19T10:27:39;25.70;60.30
18412;DHT22;27097;51.738;19.472;2022-07-19T10:30:25;25.70;60.20
18412;DHT22;27097;51.738;19.472;2022-07-19T10:32:54;25.80;59.80
18412;DHT22;27097;51.738;19.472;2022-07-19T10:35:28;25.80;59.60
18412;DHT22;27097;51.738;19.472;2022-07-19T10:38:09;25.80;58.80
18412;DHT22;27097;51.738;19.472;2022-07-19T10:40:38;25.80;59.20
18412;DHT22;27097;51.738;19.472;2022-07-19T10:43:08;25.80;59.70
18412;DHT22;27097;51.738;19.472;2022-07-19T10:45:37;25.80;59.40
18412;DHT22;27097;51.738;19.472;2022-07-19T10:48:10;25.80;59.70
18412;DHT22;27097;51.738;19.472;2022-07-19T10:50:58;25.80;59.50
18412;DHT22;27097;51.738;19.472;2022-07-19T10:53:59;25.80;59.10
18412;DHT22;27097;51.738;19.472;2022-07-19T10:56:40;25.90;59.40
18412;DHT22;27097;51.738;19.472;2022-07-19T10:59:08;25.80;59.10
18412;DHT22;27097;51.738;19.472;2022-07-19T11:01:37;25.90;59.20
18412;DHT22;27097;51.738;19.472;2022-07-19T11:04:26;25.90;58.60
18412;DHT22;27097;51.738;19.472;2022-07-19T11:07:15;25.90;58.40
18412;DHT22;27097;51.738;19.472;2022-07-19T11:09:48;25.90;58.40
18412;DHT22;27097;51.738;19.472;2022-07-19T11:12:30;25.90;58.40
18412;DHT22;27097;51.738;19.472;2022-07-19T11:14:59;25.90;58.10
18412;DHT22;27097;51.738;19.472;2022-07-19T11:17:26;25.90;58.30
18412;DHT22;27097;51.738;19.472;2022-07-19T11:20:01;25.90;58.40
18412;DHT22;27097;51.738;19.472;2022-07-19T11:22:36;25.90;58.20
18412;DHT22;27097;51.738;19.472;2022-07-19T11:25:05;25.90;57.50
18412;DHT22;27097;51.738;19.472;2022-07-19T11:27:33;25.90;57.80
18412;DHT22;27097;51.738;19.472;2022-07-19T11:30:02;25.90;57.60
18412;DHT22;27097;51.738;19.472;2022-07-19T11:32:30;25.90;57.40
18412;DHT22;27097;51.738;19.472;2022-07-19T11:35:06;25.90;57.60
18412;DHT22;27097;51.738;19.472;2022-07-19T11:37:51;25.90;57.00
18412;DHT22;27097;51.738;19.472;2022-07-19T11:40:20;25.90;56.90
18412;DHT22;27097;51.738;19.472;2022-07-19T11:42:50;25.90;57.50
18412;DHT22;27097;51.738;19.472;2022-07-19T11:45:19;25.90;56.60
18412;DHT22;27097;51.738;19.472;2022-07-19T11:47:49;25.90;56.90
18412;DHT22;27097;51.738;19.472;2022-07-19T11:50:18;25.90;56.60
18412;DHT22;27097;51.738;19.472;2022-07-19T11:52:49;25.90;56.90
18412;DHT22;27097;51.738;19.472;2022-07-19T11:55:19;25.90;56.20
18412;DHT22;27097;51.738;19.472;2022-07-19T11:57:47;25.90;56.70
18412;DHT22;27097;51.738;19.472;2022-07-19T12:00:15;25.90;56.60
18412;DHT22;27097;51.738;19.472;2022-07-19T12:03:00;25.90;56.40
18412;DHT22;27097;51.738;19.472;2022-07-19T12:05:30;25.90;56.40
18412;DHT22;27097;51.738;19.472;2022-07-19T12:08:01;25.90;56.40
18412;DHT22;27097;51.738;19.472;2022-07-19T12:10:40;25.90;56.70
18412;DHT22;27097;51.738;19.472;2022-07-19T12:13:11;25.90;56.70
18412;DHT22;27097;51.738;19.472;2022-07-19T12:15:47;25.90;56.60
18412;DHT22;27097;51.738;19.472;2022-07-19T12:18:15;25.90;56.40
18412;DHT22;27097;51.738;19.472;2022-07-19T12:20:44;25.90;56.80
18412;DHT22;27097;51.738;19.472;2022-07-19T12:23:14;25.90;56.80
18412;DHT22;27097;51.738;19.472;2022-07-19T12:25:41;25.90;56.30
18412;DHT22;27097;51.738;19.472;2022-07-19T12:28:08;25.90;56.10
18412;DHT22;27097;51.738;19.472;2022-07-19T12:30:36;25.90;56.10
18412;DHT22;27097;51.738;19.472;2022-07-19T12:33:08;25.90;56.00
18412;DHT22;27097;51.738;19.472;2022-07-19T12:35:43;25.90;56.60
18412;DHT22;27097;51.738;19.472;2022-07-19T12:38:10;25.90;56.40
18412;DHT22;27097;51.738;19.472;2022-07-19T12:40:42;25.80;56.00
18412;DHT22;27097;51.738;19.472;2022-07-19T12:43:10;25.90;56.20
18412;DHT22;27097;51.738;19.472;2022-07-19T12:45:40;25.80;56.30
18412;DHT22;27097;51.738;19.472;2022-07-19T12:48:10;25.80;56.30
18412;DHT22;27097;51.738;19.472;2022-07-19T12:50:40;25.80;56.30
18412;DHT22;27097;51.738;19.472;2022-07-19T12:53:10;25.80;56.40
18412;DHT22;27097;51.738;19.472;2022-07-19T12:55:38;25.80;56.60
18412;DHT22;27097;51.738;19.472;2022-07-19T12:58:11;25.80;56.50
18412;DHT22;27097;51.738;19.472;2022-07-19T13:00:39;25.80;55.90
18412;DHT22;27097;51.738;19.472;2022-07-19T13:03:07;25.80;55.90
18412;DHT22;27097;51.738;19.472;2022-07-19T13:05:34;25.80;56.00
18412;DHT22;27097;51.738;19.472;2022-07-19T13:08:01;25.80;56.80
18412;DHT22;27097;51.738;19.472;2022-07-19T13:10:30;25.80;56.20
18412;DHT22;27097;51.738;19.472;2022-07-19T13:12:57;25.80;56.60
18412;DHT22;27097;51.738;19.472;2022-07-19T13:15:26;25.80;56.60
18412;DHT22;27097;51.738;19.472;2022-07-19T13:17:53;25.80;56.60
18412;DHT22;27097;51.738;19.472;2022-07-19T13:20:20;25.80;56.40
18412;DHT22;27097;51.738;19.472;2022-07-19T13:22:47;25.80;56.20
18412;DHT22;27097;51.738;19.472;2022-07-19T13:25:14;25.80;56.40
18412;DHT22;27097;51.738;19.472;2022-07-19T13:27:41;25.80;56.60
18412;DHT22;27097;51.738;19.472;2022-07-19T13:30:11;25.80;56.60
18412;DHT22;27097;51.738;19.472;2022-07-19T13:32:40;25.80;56.80
18412;DHT22;27097;51.738;19.472;2022-07-19T13:35:08;25.80;56.50
18412;DHT22;27097;51.738;19.472;2022-07-19T13:37:35;25.80;56.60
18412;DHT22;27097;51.738;19.472;2022-07-19T13:40:03;25.80;56.40
18412;DHT22;27097;51.738;19.472;2022-07-19T13:42:30;25.70;56.00
18412;DHT22;27097;51.738;19.472;2022-07-19T13:44:57;25.70;55.70
18412;DHT22;27097;51.738;19.472;2022-07-19T13:47:24;25.70;56.50
18412;DHT22;27097;51.738;19.472;2022-07-19T13:49:53;25.70;56.50
18412;DHT22;27097;51.738;19.472;2022-07-19T13:52:20;25.70;56.30
18412;DHT22;27097;51.738;19.472;2022-07-19T13:54:47;25.70;55.90
18412;DHT22;27097;51.738;19.472;2022-07-19T13:57:14;25.70;56.00
18412;DHT22;27097;51.738;19.472;2022-07-19T13:59:42;25.70;56.10
18412;DHT22;27097;51.738;19.472;2022-07-19T14:02:10;25.70;56.20
18412;DHT22;27097;51.738;19.472;2022-07-19T14:04:38;25.70;56.40
18412;DHT22;27097;51.738;19.472;2022-07-19T14:07:07;25.70;56.10
18412;DHT22;27097;51.738;19.472;2022-07-19T14:09:34;25.70;56.10
18412;DHT22;27097;51.738;19.472;2022-07-19T14:12:02;25.70;55.90
18412;DHT22;27097;51.738;19.472;2022-07-19T14:14:29;25.70;56.00
18412;DHT22;27097;51.738;19.472;2022-07-19T14:16:56;25.70;56.10
18412;DHT22;27097;51.738;19.472;2022-07-19T14:19:23;25.70;56.00
18412;DHT22;27097;51.738;19.472;2022-07-19T14:21:50;25.70;55.60
18412;DHT22;27097;51.738;19.472;2022-07-19T14:24:18;25.70;55.20
18412;DHT22;27097;51.738;19.472;2022-07-19T14:26:46;25.70;55.00
18412;DHT22;27097;51.738;19.472;2022-07-19T14:29:13;25.70;55.40
18412;DHT22;27097;51.738;19.472;2022-07-19T14:31:40;25.70;55.90
18412;DHT22;27097;51.738;19.472;2022-07-19T14:34:07;25.70;55.70
18412;DHT22;27097;51.738;19.472;2022-07-19T14:36:34;25.70;55.60
18412;DHT22;27097;51.738;19.472;2022-07-19T14:39:02;25.70;55.10
18412;DHT22;27097;51.738;19.472;2022-07-19T14:41:32;25.70;55.30
18412;DHT22;27097;51.738;19.472;2022-07-19T14:43:59;25.70;54.80
18412;DHT22;27097;51.738;19.472;2022-07-19T14:46:27;25.70;54.40
18412;DHT22;27097;51.738;19.472;2022-07-19T14:48:54;25.70;54.10
18412;DHT22;27097;51.738;19.472;2022-07-19T14:51:21;25.70;54.50
18412;DHT22;27097;51.738;19.472;2022-07-19T14:53:48;25.70;54.40
18412;DHT22;27097;51.738;19.472;2022-07-19T14:56:15;25.70;54.40
18412;DHT22;27097;51.738;19.472;2022-07-19T14:58:45;25.70;54.80
18412;DHT22;27097;51.738;19.472;2022-07-19T15:01:14;25.70;54.60
18412;DHT22;27097;51.738;19.472;2022-07-19T15:03:41;25.70;54.50
18412;DHT22;27097;51.738;19.472;2022-07-19T15:06:08;25.70;54.10
18412;DHT22;27097;51.738;19.472;2022-07-19T15:08:35;25.70;53.90
18412;DHT22;27097;51.738;19.472;2022-07-19T15:11:02;25.70;53.60
18412;DHT22;27097;51.738;19.472;2022-07-19T15:13:29;25.70;53.80
18412;DHT22;27097;51.738;19.472;2022-07-19T15:15:58;25.70;54.40
18412;DHT22;27097;51.738;19.472;2022-07-19T15:18:25;25.70;54.90
18412;DHT22;27097;51.738;19.472;2022-07-19T15:20:52;25.70;54.70
18412;DHT22;27097;51.738;19.472;2022-07-19T15:23:20;25.70;54.70
18412;DHT22;27097;51.738;19.472;2022-07-19T15:25:47;25.70;53.40